createdAt,value
2022-10-18T00:00:27.381Z,8.36
2022-10-18T00:02:56.665Z,8.30
2022-10-18T00:05:24.562Z,8.29
2022-10-18T00:07:52.464Z,8.27
2022-10-18T00:10:20.629Z,8.19
2022-10-18T00:12:48.551Z,8.17
2022-10-18T00:15:16.443Z,8.15
2022-10-18T00:17:44.472Z,8.23
2022-10-18T00:20:14.041Z,8.16
2022-10-18T00:22:42.402Z,8.11
2022-10-18T00:25:10.857Z,8.23
2022-10-18T00:27:38.808Z,8.03
2022-10-18T00:30:07.763Z,8.03
2022-10-18T00:32:37.371Z,7.91
2022-10-18T00:35:06.446Z,8.03
2022-10-18T00:37:36.161Z,8.20
2022-10-18T00:40:04.667Z,8.03
2022-10-18T00:42:35.744Z,8.05
2022-10-18T00:45:23.109Z,8.20
2022-10-18T00:47:53.582Z,7.93
2022-10-18T00:50:22.580Z,7.82
2022-10-18T00:52:53.839Z,7.73
2022-10-18T00:55:22.209Z,7.82
2022-10-18T00:57:50.566Z,7.75
2022-10-18T01:00:18.993Z,7.70
2022-10-18T01:02:47.862Z,7.73
2022-10-18T01:05:18.659Z,7.74
2022-10-18T01:08:01.161Z,7.75
2022-10-18T01:10:32.365Z,7.66
2022-10-18T01:13:11.192Z,7.50
2022-10-18T01:15:44.595Z,7.45
2022-10-18T01:18:17.567Z,7.69
2022-10-18T01:21:18.655Z,7.65
2022-10-18T01:24:24.797Z,7.56
2022-10-18T01:27:27.339Z,7.57
2022-10-18T01:30:09.311Z,7.69
2022-10-18T01:32:41.892Z,7.48
2022-10-18T01:35:13.106Z,7.51
2022-10-18T01:37:41.371Z,7.45
2022-10-18T01:40:10.592Z,7.46
2022-10-18T01:42:38.508Z,7.85
2022-10-18T01:45:08.695Z,7.70
2022-10-18T01:47:38.816Z,7.63
2022-10-18T01:50:08.174Z,7.55
2022-10-18T01:52:36.101Z,7.47
2022-10-18T01:55:04.959Z,7.41
2022-10-18T01:57:38.048Z,7.41
2022-10-18T02:00:08.140Z,7.36
2022-10-18T02:02:43.978Z,7.33
2022-10-18T02:05:18.206Z,7.40
2022-10-18T02:08:00.162Z,7.29
2022-10-18T02:10:42.885Z,7.47
2022-10-18T02:13:12.686Z,7.36
2022-10-18T02:15:43.024Z,7.37
2022-10-18T02:18:15.362Z,7.37
2022-10-18T02:20:43.440Z,7.30
2022-10-18T02:23:12.060Z,7.37
2022-10-18T02:25:40.287Z,7.34
2022-10-18T02:28:08.305Z,7.32
2022-10-18T02:30:39.175Z,7.34
2022-10-18T02:33:14.290Z,7.27
2022-10-18T02:35:46.648Z,7.14
2022-10-18T02:38:16.695Z,7.21
2022-10-18T02:40:44.737Z,7.16
2022-10-18T02:43:12.686Z,7.24
2022-10-18T02:45:40.584Z,7.30
2022-10-18T02:48:08.849Z,7.33
2022-10-18T02:50:38.106Z,7.20
2022-10-18T02:53:06.005Z,7.27
2022-10-18T02:55:33.896Z,7.21
2022-10-18T02:58:01.873Z,7.17
2022-10-18T03:00:29.972Z,7.12
2022-10-18T03:02:57.864Z,7.15
2022-10-18T03:05:25.760Z,7.20
2022-10-18T03:07:57.745Z,7.15
2022-10-18T03:10:25.754Z,7.20
2022-10-18T03:12:53.686Z,7.18
2022-10-18T03:15:21.589Z,7.23
2022-10-18T03:17:49.460Z,7.19
2022-10-18T03:20:17.375Z,7.25
2022-10-18T03:22:45.312Z,7.08
2022-10-18T03:25:14.634Z,7.13
2022-10-18T03:27:42.547Z,7.04
2022-10-18T03:30:11.979Z,7.10
2022-10-18T03:32:39.898Z,7.10
2022-10-18T03:35:09.214Z,7.10
2022-10-18T03:37:37.508Z,7.04
2022-10-18T03:40:06.456Z,7.07
2022-10-18T03:42:35.714Z,6.88
2022-10-18T03:45:03.688Z,7.00
2022-10-18T03:47:31.657Z,6.93
2022-10-18T03:49:59.561Z,6.91
2022-10-18T03:52:27.466Z,6.89
2022-10-18T03:54:55.346Z,6.92
2022-10-18T03:57:25.847Z,6.89
2022-10-18T03:59:55.140Z,6.97
2022-10-18T04:02:23.149Z,7.02
2022-10-18T04:04:51.055Z,7.05
2022-10-18T04:07:21.266Z,7.16
2022-10-18T04:09:49.235Z,7.09
2022-10-18T04:12:17.170Z,6.93
2022-10-18T04:14:45.086Z,6.84
2022-10-18T04:17:14.535Z,6.91
2022-10-18T04:19:44.264Z,6.74
2022-10-18T04:22:12.692Z,6.70
2022-10-18T04:24:40.645Z,6.87
2022-10-18T04:27:08.852Z,6.62
2022-10-18T04:29:36.742Z,6.62
2022-10-18T04:32:04.679Z,6.63
2022-10-18T04:34:34.660Z,6.50
2022-10-18T04:37:02.784Z,6.45
2022-10-18T04:39:30.690Z,6.49
2022-10-18T04:41:58.616Z,6.46
2022-10-18T04:44:26.563Z,6.40
2022-10-18T04:46:54.506Z,6.43
2022-10-18T04:49:22.421Z,6.51
2022-10-18T04:51:54.905Z,6.41
2022-10-18T04:54:25.159Z,6.35
2022-10-18T04:56:55.793Z,6.31
2022-10-18T04:59:23.713Z,6.30
2022-10-18T05:01:51.928Z,6.31
2022-10-18T05:04:19.959Z,6.28
2022-10-18T05:06:48.384Z,6.28
2022-10-18T05:09:17.669Z,6.27
2022-10-18T05:11:45.598Z,6.24
2022-10-18T05:14:20.444Z,6.30
2022-10-18T05:16:48.338Z,6.23
2022-10-18T05:19:16.420Z,6.28
2022-10-18T05:21:44.363Z,6.27
2022-10-18T05:24:12.789Z,6.26
2022-10-18T05:26:42.241Z,6.18
2022-10-18T05:29:10.256Z,6.31
2022-10-18T05:31:38.730Z,6.22
2022-10-18T05:34:06.665Z,6.32
2022-10-18T05:36:34.609Z,6.42
2022-10-18T05:39:05.081Z,6.37
2022-10-18T05:41:33.685Z,6.41
2022-10-18T05:44:06.913Z,6.30
2022-10-18T05:46:34.903Z,6.39
2022-10-18T05:49:02.863Z,6.38
2022-10-18T05:51:33.073Z,6.45
2022-10-18T05:54:01.009Z,6.52
2022-10-18T05:56:28.938Z,6.58
2022-10-18T05:58:56.950Z,6.71
2022-10-18T06:01:26.383Z,6.79
2022-10-18T06:03:54.542Z,7.01
2022-10-18T06:06:24.981Z,7.06
2022-10-18T06:08:52.886Z,7.15
2022-10-18T06:11:21.810Z,7.12
2022-10-18T06:13:51.231Z,7.20
2022-10-18T06:16:20.734Z,7.54
2022-10-18T06:18:50.530Z,7.53
2022-10-18T06:21:19.085Z,7.86
2022-10-18T06:23:49.692Z,7.93
2022-10-18T06:26:17.645Z,8.11
2022-10-18T06:28:45.720Z,8.29
2022-10-18T06:31:14.410Z,8.35
2022-10-18T06:33:42.559Z,8.50
2022-10-18T06:36:14.013Z,8.65
2022-10-18T06:38:42.142Z,8.67
2022-10-18T06:41:10.260Z,8.84
2022-10-18T06:43:38.213Z,8.93
2022-10-18T06:46:07.725Z,8.98
2022-10-18T06:48:36.105Z,9.16
2022-10-18T06:51:05.338Z,9.17
2022-10-18T06:53:43.675Z,9.57
2022-10-18T06:56:16.547Z,9.77
2022-10-18T06:58:44.452Z,9.95
2022-10-18T07:01:15.707Z,10.07
2022-10-18T07:03:43.847Z,10.19
2022-10-18T07:06:13.739Z,10.28
2022-10-18T07:08:43.308Z,10.71
2022-10-18T07:11:16.250Z,10.97
2022-10-18T07:13:44.198Z,11.15
2022-10-18T07:16:17.299Z,11.19
2022-10-18T07:18:49.387Z,11.35
2022-10-18T07:21:18.923Z,11.45
2022-10-18T07:23:48.808Z,11.49
2022-10-18T07:26:19.414Z,11.69
2022-10-18T07:28:50.770Z,11.90
2022-10-18T07:31:19.086Z,12.05
2022-10-18T07:33:47.028Z,12.27
2022-10-18T07:36:15.037Z,12.53
2022-10-18T07:38:43.064Z,12.48
2022-10-18T07:41:13.848Z,12.77
2022-10-18T07:43:44.455Z,12.88
2022-10-18T07:46:12.757Z,13.08
2022-10-18T07:48:40.666Z,13.34
2022-10-18T07:51:11.257Z,13.24
2022-10-18T07:53:40.679Z,13.55
2022-10-18T07:56:12.009Z,13.83
2022-10-18T07:58:41.283Z,14.03
2022-10-18T08:01:09.762Z,14.15
2022-10-18T08:03:38.751Z,14.08
2022-10-18T08:06:09.232Z,14.11
2022-10-18T08:08:38.207Z,14.31
2022-10-18T08:11:07.790Z,14.40
2022-10-18T08:13:35.722Z,14.40
2022-10-18T08:16:07.086Z,14.54
2022-10-18T08:18:35.323Z,14.24
2022-10-18T08:21:03.433Z,14.45
2022-10-18T08:23:31.367Z,14.60
2022-10-18T08:26:02.141Z,14.74
2022-10-18T08:28:30.755Z,14.24
2022-10-18T08:30:58.806Z,14.07
2022-10-18T08:33:28.068Z,14.13
2022-10-18T08:35:56.561Z,14.05
2022-10-18T08:38:24.592Z,14.26
2022-10-18T08:40:52.806Z,14.40
2022-10-18T08:43:28.360Z,14.33
2022-10-18T08:45:56.713Z,14.51
2022-10-18T08:48:30.201Z,14.41
2022-10-18T08:50:58.643Z,14.16
2022-10-18T08:53:30.200Z,14.45
2022-10-18T08:56:03.641Z,14.37
2022-10-18T08:58:33.523Z,14.35
2022-10-18T09:01:09.142Z,14.65
2022-10-18T09:03:54.457Z,14.69
2022-10-18T09:06:27.397Z,14.70
2022-10-18T09:09:08.228Z,14.81
2022-10-18T09:11:48.133Z,14.74
2022-10-18T09:14:36.429Z,14.98
2022-10-18T09:17:13.668Z,14.97
2022-10-18T09:22:43.118Z,15.20
2022-10-18T09:25:17.051Z,14.87
2022-10-18T09:27:53.119Z,15.17
2022-10-18T09:30:31.145Z,15.12
2022-10-18T09:33:05.946Z,15.34
2022-10-18T09:35:40.105Z,15.08
2022-10-18T09:38:12.738Z,15.35
2022-10-18T09:40:48.325Z,15.25
2022-10-18T09:43:19.157Z,15.35
2022-10-18T09:45:48.433Z,15.60
2022-10-18T09:48:20.003Z,15.64
2022-10-18T09:50:52.568Z,15.35
2022-10-18T09:53:24.916Z,15.50
2022-10-18T09:55:58.314Z,15.35
2022-10-18T09:58:28.261Z,15.69
2022-10-18T10:00:56.840Z,15.53
2022-10-18T10:03:24.720Z,15.59
2022-10-18T10:06:04.356Z,15.82
2022-10-18T10:08:35.882Z,16.04
2022-10-18T10:11:06.600Z,15.50
2022-10-18T10:13:34.614Z,15.83
2022-10-18T10:16:03.783Z,15.85
2022-10-18T10:18:32.980Z,15.57
2022-10-18T10:21:03.955Z,15.42
2022-10-18T10:23:34.565Z,15.49
2022-10-18T10:26:03.902Z,15.42
2022-10-18T10:28:34.189Z,15.36
2022-10-18T10:31:22.565Z,15.26
2022-10-18T10:34:00.181Z,15.49
2022-10-18T10:36:30.451Z,15.72
2022-10-18T10:39:06.448Z,15.57
2022-10-18T10:41:34.958Z,15.42
2022-10-18T10:44:03.953Z,15.73
2022-10-18T10:46:36.554Z,15.73
2022-10-18T10:49:34.950Z,15.55
2022-10-18T10:52:08.516Z,15.51
2022-10-18T10:54:51.178Z,15.68
2022-10-18T10:57:23.618Z,15.57
2022-10-18T10:59:53.431Z,15.78
2022-10-18T11:02:23.225Z,15.60
2022-10-18T11:04:52.425Z,15.57
2022-10-18T11:07:25.309Z,15.67
2022-10-18T11:09:59.320Z,15.37
2022-10-18T11:12:34.585Z,15.56
2022-10-18T11:15:11.990Z,15.56
2022-10-18T11:17:44.172Z,15.63
2022-10-18T11:20:20.941Z,15.66
2022-10-18T11:22:59.812Z,15.52
2022-10-18T11:25:35.866Z,15.42
2022-10-18T11:28:09.585Z,15.25
2022-10-18T11:30:44.987Z,15.51
2022-10-18T11:33:33.733Z,15.42
2022-10-18T11:36:16.504Z,15.42
2022-10-18T11:38:50.601Z,15.43
2022-10-18T11:41:31.390Z,15.49
2022-10-18T11:44:02.989Z,15.48
2022-10-18T11:46:45.557Z,15.83
2022-10-18T11:49:22.520Z,15.48
2022-10-18T11:52:08.528Z,15.73
2022-10-18T11:54:53.556Z,15.58
2022-10-18T11:57:41.969Z,15.51
2022-10-18T12:00:19.890Z,15.75
2022-10-18T12:03:04.884Z,15.58
2022-10-18T12:05:34.105Z,15.69
2022-10-18T12:08:05.440Z,15.45
2022-10-18T12:10:52.591Z,15.60
2022-10-18T12:13:35.082Z,15.42
2022-10-18T12:16:04.534Z,15.38
2022-10-18T12:18:33.145Z,15.30
2022-10-18T12:21:01.890Z,15.33
2022-10-18T12:23:36.926Z,15.45
2022-10-18T12:26:09.073Z,15.39
2022-10-18T12:28:48.213Z,15.49
2022-10-18T12:31:21.930Z,15.62
2022-10-18T12:33:52.296Z,15.67
2022-10-18T12:36:45.594Z,15.66
2022-10-18T12:39:29.147Z,15.42
2022-10-18T12:42:19.260Z,15.65
2022-10-18T12:44:47.712Z,15.49
2022-10-18T12:47:23.395Z,15.35
2022-10-18T12:49:57.810Z,15.58
2022-10-18T12:52:28.135Z,15.76
2022-10-18T12:55:06.551Z,16.02
2022-10-18T12:58:05.589Z,16.25
2022-10-18T13:00:52.452Z,16.13
2022-10-18T13:03:44.201Z,16.27
2022-10-18T13:06:12.107Z,16.23
2022-10-18T13:08:42.797Z,16.44
2022-10-18T13:11:33.250Z,16.70
2022-10-18T13:14:18.285Z,16.43
2022-10-18T13:16:50.043Z,16.64
2022-10-18T13:19:23.273Z,16.73
2022-10-18T13:21:57.900Z,16.95
2022-10-18T13:24:32.164Z,16.83
2022-10-18T13:27:36.225Z,16.93
2022-10-18T13:30:31.497Z,16.91
2022-10-18T13:33:08.488Z,16.97
2022-10-18T13:36:00.299Z,17.13
2022-10-18T13:38:48.535Z,17.41
2022-10-18T13:41:19.287Z,17.34
2022-10-18T13:43:59.260Z,17.24
2022-10-18T13:47:18.456Z,17.21
2022-10-18T13:53:20.792Z,17.23
2022-10-18T13:55:57.658Z,17.29
2022-10-18T13:58:31.993Z,17.37
2022-10-18T14:01:11.483Z,17.33
2022-10-18T14:03:57.499Z,17.39
2022-10-18T14:06:29.261Z,17.26
2022-10-18T14:09:06.287Z,17.35
2022-10-18T14:11:46.252Z,17.28
2022-10-18T14:14:16.681Z,17.21
2022-10-18T14:16:49.936Z,17.39
2022-10-18T14:19:30.322Z,17.34
2022-10-18T14:22:03.474Z,17.17
2022-10-18T14:24:32.096Z,17.08
2022-10-18T14:27:14.042Z,17.01
2022-10-18T14:29:42.150Z,16.94
2022-10-18T14:32:30.183Z,16.98
2022-10-18T14:35:31.738Z,16.98
2022-10-18T14:37:48.312Z,17.06
2022-10-18T14:40:31.166Z,17.10
2022-10-18T14:43:03.842Z,17.24
2022-10-18T14:45:31.889Z,17.41
2022-10-18T14:48:15.754Z,17.42
2022-10-18T14:50:47.259Z,17.38
2022-10-18T14:53:18.132Z,17.44
2022-10-18T14:55:54.272Z,17.26
2022-10-18T14:58:22.333Z,17.25
2022-10-18T15:00:50.297Z,17.00
2022-10-18T15:03:18.916Z,17.02
2022-10-18T15:05:56.357Z,16.86
2022-10-18T15:08:24.860Z,16.78
2022-10-18T15:10:53.142Z,16.82
2022-10-18T15:13:21.211Z,16.74
2022-10-18T15:15:49.293Z,16.67
2022-10-18T15:18:22.211Z,16.71
2022-10-18T15:21:09.783Z,16.72
2022-10-18T15:23:37.710Z,16.61
2022-10-18T15:26:07.293Z,16.52
2022-10-18T15:28:37.155Z,16.49
2022-10-18T15:31:06.966Z,16.45
2022-10-18T15:33:35.031Z,16.49
2022-10-18T15:36:11.755Z,16.45
2022-10-18T15:38:40.032Z,16.46
2022-10-18T15:41:38.982Z,16.57
2022-10-18T15:44:20.841Z,16.46
2022-10-18T15:46:49.149Z,16.45
2022-10-18T15:49:50.919Z,16.39
2022-10-18T15:52:41.925Z,16.29
2022-10-18T15:55:46.754Z,16.39
2022-10-18T15:58:19.219Z,16.39
2022-10-18T16:00:48.156Z,16.18
2022-10-18T16:03:16.682Z,16.23
2022-10-18T16:05:45.346Z,16.13
2022-10-18T16:08:26.594Z,16.13
2022-10-18T16:10:54.467Z,15.98
2022-10-18T16:13:22.331Z,15.76
2022-10-18T16:15:50.239Z,15.67
2022-10-18T16:18:20.240Z,15.59
2022-10-18T16:20:49.114Z,15.40
2022-10-18T16:23:18.970Z,15.21
2022-10-18T16:25:48.704Z,15.19
2022-10-18T16:28:19.093Z,15.09
2022-10-18T16:30:50.321Z,14.95
2022-10-18T16:33:21.411Z,14.88
2022-10-18T16:35:50.071Z,14.79
2022-10-18T16:38:25.651Z,14.63
2022-10-18T16:40:55.340Z,14.54
2022-10-18T16:43:23.791Z,14.53
2022-10-18T16:45:53.204Z,14.26
2022-10-18T16:48:22.868Z,14.26
2022-10-18T16:50:51.012Z,14.20
2022-10-18T16:53:23.159Z,14.08
2022-10-18T16:55:54.631Z,13.94
2022-10-18T17:00:57.659Z,13.76
2022-10-18T17:03:26.215Z,13.70
2022-10-18T17:05:54.456Z,13.59
2022-10-18T17:08:24.665Z,13.58
2022-10-18T17:10:54.441Z,13.85
2022-10-18T17:13:24.762Z,13.69
2022-10-18T17:15:53.427Z,13.35
2022-10-18T17:18:26.358Z,13.35
2022-10-18T17:20:54.473Z,13.36
2022-10-18T17:23:22.456Z,13.32
2022-10-18T17:26:05.026Z,13.23
2022-10-18T17:28:38.850Z,13.18
2022-10-18T17:31:07.793Z,13.00
2022-10-18T17:33:35.893Z,12.92
2022-10-18T17:36:04.366Z,12.91
2022-10-18T17:38:32.266Z,12.83
2022-10-18T17:41:00.204Z,12.85
2022-10-18T17:43:28.880Z,12.74
2022-10-18T17:45:58.278Z,12.71
2022-10-18T17:48:28.244Z,12.61
2022-10-18T17:50:56.384Z,12.49
2022-10-18T17:53:28.464Z,12.42
2022-10-18T17:56:02.357Z,12.35
2022-10-18T17:58:31.010Z,12.35
2022-10-18T18:01:09.755Z,12.23
2022-10-18T18:03:37.749Z,12.28
2022-10-18T18:06:16.922Z,12.37
2022-10-18T18:08:44.975Z,12.26
2022-10-18T18:11:12.949Z,12.24
2022-10-18T18:13:40.868Z,12.13
2022-10-18T18:16:15.416Z,12.09
2022-10-18T18:18:45.265Z,12.01
2022-10-18T18:21:13.873Z,12.01
2022-10-18T18:23:41.772Z,12.05
2022-10-18T18:26:10.110Z,12.16
2022-10-18T18:28:38.250Z,12.21
2022-10-18T18:31:07.599Z,12.14
2022-10-18T18:33:37.311Z,12.09
2022-10-18T18:36:06.802Z,12.10
2022-10-18T18:38:36.170Z,11.97
2022-10-18T18:41:08.464Z,12.10
2022-10-18T18:43:36.962Z,12.14
2022-10-18T18:46:05.449Z,12.09
2022-10-18T18:48:34.528Z,12.18
2022-10-18T18:51:04.817Z,12.08
2022-10-18T18:53:33.221Z,12.44
2022-10-18T18:56:06.138Z,12.32
2022-10-18T18:58:38.496Z,12.40
2022-10-18T19:01:08.281Z,12.23
2022-10-18T19:03:36.991Z,12.24
2022-10-18T19:06:08.376Z,12.18
2022-10-18T19:08:40.297Z,12.09
2022-10-18T19:11:09.594Z,12.03
2022-10-18T19:13:37.618Z,11.99
2022-10-18T19:16:23.775Z,11.94
2022-10-18T19:18:53.465Z,11.89
2022-10-18T19:21:23.009Z,11.73
2022-10-18T19:23:51.304Z,11.66
2022-10-18T19:26:27.588Z,11.62
2022-10-18T19:28:55.859Z,11.68
2022-10-18T19:31:24.224Z,11.87
2022-10-18T19:33:59.206Z,11.76
2022-10-18T19:36:29.641Z,11.74
2022-10-18T19:38:58.116Z,11.88
2022-10-18T19:43:59.045Z,11.87
2022-10-18T19:46:27.247Z,11.72
2022-10-18T19:48:55.158Z,11.77
2022-10-18T19:51:27.739Z,11.72
2022-10-18T19:53:58.322Z,11.68
2022-10-18T19:56:27.345Z,11.64
2022-10-18T19:58:55.901Z,11.65
2022-10-18T20:01:24.000Z,11.59
2022-10-18T20:03:52.216Z,11.61
2022-10-18T20:06:20.564Z,11.67
2022-10-18T20:08:49.121Z,11.84
2022-10-18T20:11:20.491Z,11.78
2022-10-18T20:13:48.477Z,11.70
2022-10-18T20:16:17.976Z,11.86
2022-10-18T20:18:45.878Z,11.86
2022-10-18T20:21:15.212Z,11.96
2022-10-18T20:23:43.972Z,11.91
2022-10-18T20:26:18.026Z,12.02
2022-10-18T20:28:55.910Z,11.93
2022-10-18T20:31:24.609Z,12.02
2022-10-18T20:33:55.401Z,11.95
2022-10-18T20:36:23.310Z,11.76
2022-10-18T20:38:51.225Z,11.71
2022-10-18T20:41:21.183Z,11.68
2022-10-18T20:43:53.810Z,11.56
2022-10-18T20:46:22.290Z,11.44
2022-10-18T20:48:50.783Z,11.39
2022-10-18T20:51:19.212Z,11.35
2022-10-18T20:53:47.535Z,11.45
2022-10-18T20:56:16.439Z,11.43
2022-10-18T20:58:45.627Z,11.34
2022-10-18T21:01:16.591Z,11.43
2022-10-18T21:03:46.054Z,11.43
2022-10-18T21:06:15.300Z,11.44
2022-10-18T21:08:44.291Z,11.52
2022-10-18T21:11:12.907Z,11.49
2022-10-18T21:13:41.797Z,11.39
2022-10-18T21:16:09.877Z,11.20
2022-10-18T21:18:40.428Z,11.11
2022-10-18T21:21:10.388Z,11.11
2022-10-18T21:23:38.348Z,11.16
2022-10-18T21:26:06.748Z,11.04
2022-10-18T21:28:35.037Z,11.08
2022-10-18T21:31:13.020Z,11.01
2022-10-18T21:33:42.707Z,11.03
2022-10-18T21:36:10.885Z,10.98
2022-10-18T21:38:39.302Z,11.05
2022-10-18T21:41:10.929Z,11.20
2022-10-18T21:43:40.679Z,11.22
2022-10-18T21:46:10.056Z,11.36
2022-10-18T21:48:39.004Z,11.20
2022-10-18T21:51:09.551Z,11.19
2022-10-18T21:53:38.056Z,11.29
2022-10-18T21:56:07.838Z,11.25
2022-10-18T21:58:36.145Z,11.46
2022-10-18T22:01:08.304Z,11.62
2022-10-18T22:03:36.265Z,11.56
2022-10-18T22:06:07.645Z,11.64
2022-10-18T22:08:37.181Z,11.55
2022-10-18T22:11:05.161Z,11.57
2022-10-18T22:13:33.072Z,11.44
2022-10-18T22:16:02.153Z,11.50
2022-10-18T22:18:30.082Z,11.47
2022-10-18T22:20:59.520Z,11.63
2022-10-18T22:23:32.883Z,11.60
2022-10-18T22:26:05.156Z,11.44
2022-10-18T22:28:33.099Z,11.54
2022-10-18T22:31:01.417Z,11.52
2022-10-18T22:33:29.432Z,11.59
2022-10-18T22:35:57.437Z,11.72
2022-10-18T22:38:25.517Z,11.84
2022-10-18T22:40:53.403Z,11.87
2022-10-18T22:43:22.677Z,12.25
2022-10-18T22:45:50.542Z,13.12
2022-10-18T22:48:18.441Z,13.73
2022-10-18T22:50:46.344Z,13.85
2022-10-18T22:53:14.246Z,13.89
2022-10-18T22:55:42.101Z,13.99
2022-10-18T22:58:10.010Z,14.19
2022-10-18T23:00:40.377Z,14.19
2022-10-18T23:03:08.298Z,14.19
2022-10-18T23:05:38.484Z,14.02
2022-10-18T23:08:06.571Z,14.05
2022-10-18T23:10:34.539Z,14.02
2022-10-18T23:13:02.461Z,14.12
2022-10-18T23:15:30.758Z,14.17
2022-10-18T23:18:00.473Z,14.14
2022-10-18T23:20:28.670Z,14.12
2022-10-18T23:22:56.638Z,14.05
2022-10-18T23:25:24.607Z,13.89
2022-10-18T23:27:52.505Z,13.84
2022-10-18T23:30:20.407Z,13.96
2022-10-18T23:32:48.268Z,13.92
2022-10-18T23:35:17.771Z,14.00
2022-10-18T23:37:45.629Z,13.83
2022-10-18T23:40:13.797Z,13.71
2022-10-18T23:42:41.668Z,13.70
2022-10-18T23:45:10.675Z,13.66
2022-10-18T23:47:39.657Z,13.75
2022-10-18T23:50:08.212Z,13.85
2022-10-18T23:52:37.425Z,13.83
2022-10-18T23:55:06.059Z,13.77
2022-10-18T23:57:34.248Z,13.76
